createdAt,value
2023-03-23T00:00:24.257Z,1.5
2023-03-23T00:01:23.101Z,1.799
2023-03-23T00:02:22.543Z,1.5
2023-03-23T00:03:23.080Z,1.600
2023-03-23T00:04:23.270Z,1.700
2023-03-23T00:05:22.993Z,1.5
2023-03-23T00:06:22.866Z,1.600
2023-03-23T00:07:23.296Z,1.700
2023-03-23T00:08:22.984Z,1.600
2023-03-23T00:09:23.107Z,1.799
2023-03-23T00:11:23.165Z,1.600
2023-03-23T00:12:22.960Z,1.399
2023-03-23T00:13:22.359Z,1.5
2023-03-23T00:15:23.059Z,1.899
2023-03-23T00:16:23.007Z,1.600
2023-03-23T00:17:22.753Z,1.700
2023-03-23T00:18:23.060Z,1.600
2023-03-23T00:19:23.017Z,1.700
2023-03-23T00:21:23.079Z,1.600
2023-03-23T00:25:23.220Z,1.5
2023-03-23T00:26:22.096Z,1.700
2023-03-23T00:27:22.711Z,1.5
2023-03-23T00:28:22.987Z,1.600
2023-03-23T00:29:23.143Z,1.5
2023-03-23T00:30:23.338Z,1.799
2023-03-23T00:32:23.229Z,1.700
2023-03-23T00:34:23.049Z,1.5
2023-03-23T00:35:23.486Z,1.700
2023-03-23T00:36:23.143Z,1.600
2023-03-23T00:37:22.172Z,1.399
2023-03-23T00:39:22.872Z,1.899
2023-03-23T00:42:22.996Z,1.600
2023-03-23T00:43:22.634Z,1.700
2023-03-23T00:46:23.115Z,1.5
2023-03-23T00:47:23.383Z,1.700
2023-03-23T00:49:23.670Z,1.799
2023-03-23T00:51:22.895Z,1.700
2023-03-23T00:54:22.918Z,1.5
2023-03-23T00:55:23.285Z,1.700
2023-03-23T00:57:22.515Z,1.299
2023-03-23T00:58:22.716Z,1.899
2023-03-23T00:59:22.905Z,1.700
2023-03-23T01:01:25.929Z,1.600
2023-03-23T01:02:23.069Z,1.899
2023-03-23T01:03:23.139Z,1.600
2023-03-23T01:04:23.230Z,1.799
2023-03-23T01:05:22.852Z,1.600
2023-03-23T01:06:23.448Z,1.799
2023-03-23T01:07:22.829Z,1.700
2023-03-23T01:09:22.800Z,1.899
2023-03-23T01:10:23.531Z,1.799
2023-03-23T01:13:22.829Z,1.700
2023-03-23T01:16:22.290Z,1.899
2023-03-23T01:17:22.930Z,1.700
2023-03-23T01:18:22.749Z,1.899
2023-03-23T01:19:23.403Z,2
2023-03-23T01:20:22.987Z,1.899
2023-03-23T01:22:23.166Z,1.799
2023-03-23T01:23:23.378Z,1.899
2023-03-23T01:24:22.781Z,1.799
2023-03-23T01:25:23.232Z,2
2023-03-23T01:26:23.237Z,1.899
2023-03-23T01:27:22.617Z,1.799
2023-03-23T01:28:22.966Z,1.700
2023-03-23T01:29:22.960Z,1.799
2023-03-23T01:30:23.166Z,1.600
2023-03-23T01:31:22.547Z,1.700
2023-03-23T01:32:23.159Z,2
2023-03-23T01:34:22.765Z,1.700
2023-03-23T01:36:23.110Z,1.799
2023-03-23T01:37:23.287Z,1.899
2023-03-23T01:39:23.321Z,1.799
2023-03-23T01:40:23.284Z,1.700
2023-03-23T01:41:23.199Z,1.799
2023-03-23T01:42:22.684Z,1.899
2023-03-23T01:43:22.553Z,1.799
2023-03-23T01:44:23.367Z,1.600
2023-03-23T01:46:23.031Z,1.799
2023-03-23T01:47:37.300Z,2
2023-03-23T01:48:21.812Z,1.700
2023-03-23T01:51:26.194Z,1.799
2023-03-23T01:52:22.735Z,1.899
2023-03-23T01:53:22.400Z,1.600
2023-03-23T01:54:23.261Z,1.700
2023-03-23T01:55:22.994Z,1.399
2023-03-23T01:56:22.112Z,1.700
2023-03-23T01:58:22.805Z,1.799
2023-03-23T01:59:22.746Z,1.700
2023-03-23T02:00:24.201Z,1.600
2023-03-23T02:01:23.323Z,1.799
2023-03-23T02:02:23.135Z,1.700
2023-03-23T02:04:23.089Z,1.799
2023-03-23T02:06:23.196Z,1.5
2023-03-23T02:07:23.358Z,1.700
2023-03-23T02:08:23.033Z,1.600
2023-03-23T02:11:22.535Z,1.700
2023-03-23T02:13:22.661Z,1.600
2023-03-23T02:14:22.655Z,1.700
2023-03-23T02:17:22.837Z,1.399
2023-03-23T02:18:22.520Z,1.5
2023-03-23T02:19:22.686Z,1.600
2023-03-23T02:20:22.860Z,1.799
2023-03-23T02:21:23.265Z,1.600
2023-03-23T02:23:22.332Z,1.5
2023-03-23T02:24:22.596Z,1.799
2023-03-23T02:25:22.642Z,1.399
2023-03-23T02:26:22.870Z,1.700
2023-03-23T02:27:22.822Z,1.600
2023-03-23T02:28:22.865Z,1.5
2023-03-23T02:30:23.651Z,1.799
2023-03-23T02:31:22.542Z,1.600
2023-03-23T02:34:25.201Z,1.399
2023-03-23T02:35:22.951Z,1.600
2023-03-23T02:37:23.345Z,1.5
2023-03-23T02:38:22.508Z,1.299
2023-03-23T02:39:23.100Z,1.600
2023-03-23T02:40:22.973Z,1.399
2023-03-23T02:42:22.555Z,1.5
2023-03-23T02:43:22.670Z,1.399
2023-03-23T02:44:22.486Z,1.600
2023-03-23T02:45:23.176Z,1.399
2023-03-23T02:47:22.611Z,1.5
2023-03-23T02:49:23.302Z,1.399
2023-03-23T02:50:23.337Z,1.200
2023-03-23T02:51:22.382Z,1.600
2023-03-23T02:52:22.487Z,1.5
2023-03-23T02:53:23.130Z,1.299
2023-03-23T02:54:23.103Z,1.399
2023-03-23T02:55:23.447Z,1.299
2023-03-23T02:56:23.008Z,1.399
2023-03-23T02:57:22.887Z,1.5
2023-03-23T02:58:22.528Z,1.399
2023-03-23T02:59:23.072Z,1.600
2023-03-23T03:00:24.234Z,1.399
2023-03-23T03:01:23.217Z,1.299
2023-03-23T03:02:23.268Z,1.399
2023-03-23T03:03:22.800Z,1.700
2023-03-23T03:04:23.095Z,1.5
2023-03-23T03:07:22.958Z,1.299
2023-03-23T03:08:22.621Z,1.600
2023-03-23T03:09:23.098Z,1.5
2023-03-23T03:10:23.119Z,1.299
2023-03-23T03:11:23.057Z,1.600
2023-03-23T03:12:22.891Z,1.5
2023-03-23T03:13:22.590Z,1.600
2023-03-23T03:15:22.676Z,1.700
2023-03-23T03:16:22.769Z,1.5
2023-03-23T03:17:22.612Z,1.600
2023-03-23T03:18:22.195Z,1.399
2023-03-23T03:19:22.772Z,1.5
2023-03-23T03:20:22.181Z,1.700
2023-03-23T03:21:22.958Z,1.5
2023-03-23T03:22:22.827Z,1.700
2023-03-23T03:23:22.393Z,1.5
2023-03-23T03:24:22.892Z,1.399
2023-03-23T03:27:22.293Z,1.600
2023-03-23T03:29:22.610Z,1.399
2023-03-23T03:30:22.961Z,1.5
2023-03-23T03:31:22.777Z,1.399
2023-03-23T03:32:22.524Z,1.700
2023-03-23T03:33:22.474Z,1.600
2023-03-23T03:36:22.578Z,1.399
2023-03-23T03:37:22.406Z,1.5
2023-03-23T03:38:22.489Z,1.399
2023-03-23T03:40:22.777Z,1.5
2023-03-23T03:41:22.319Z,1.600
2023-03-23T03:42:22.800Z,1.5
2023-03-23T03:43:23.493Z,1.700
2023-03-23T03:44:22.710Z,1.5
2023-03-23T03:45:22.951Z,1.399
2023-03-23T03:47:23.082Z,1.5
2023-03-23T03:48:27.809Z,1.600
2023-03-23T03:49:23.423Z,1.399
2023-03-23T03:52:27.804Z,1.299
2023-03-23T03:53:22.977Z,1.600
2023-03-23T03:54:27.578Z,1.399
2023-03-23T03:55:22.482Z,1.700
2023-03-23T03:56:22.798Z,1.600
2023-03-23T03:57:22.415Z,2
2023-03-23T03:58:31.152Z,1.799
2023-03-23T04:00:32.056Z,1.600
2023-03-23T04:02:22.495Z,1.700
2023-03-23T04:05:22.685Z,1.600
2023-03-23T04:06:22.560Z,1.700
2023-03-23T04:08:22.257Z,1.799
2023-03-23T04:11:33.313Z,1.899
2023-03-23T04:12:22.370Z,1.600
2023-03-23T04:13:22.369Z,1.700
2023-03-23T04:15:22.368Z,1.5
2023-03-23T04:16:23.022Z,1.899
2023-03-23T04:18:22.731Z,1.700
2023-03-23T04:19:23.328Z,1.799
2023-03-23T04:23:22.288Z,1.5
2023-03-23T04:24:56.427Z,1.700
2023-03-23T04:25:30.588Z,1.799
2023-03-23T04:26:22.235Z,1.700
2023-03-23T04:27:22.259Z,1.799
2023-03-23T04:28:22.837Z,1.899
2023-03-23T04:29:22.148Z,1.799
2023-03-23T04:30:23.080Z,1.5
2023-03-23T04:31:22.460Z,1.799
2023-03-23T04:32:22.161Z,1.700
2023-03-23T04:33:22.693Z,1.899
2023-03-23T04:34:23.116Z,1.700
2023-03-23T04:37:29.205Z,1.799
2023-03-23T04:38:22.161Z,1.600
2023-03-23T04:39:23.149Z,1.799
2023-03-23T04:40:23.139Z,1.899
2023-03-23T04:41:22.791Z,1.799
2023-03-23T04:42:22.640Z,1.899
2023-03-23T04:43:22.386Z,1.799
2023-03-23T04:44:22.193Z,1.899
2023-03-23T04:45:22.496Z,2
2023-03-23T04:46:22.107Z,1.700
2023-03-23T04:47:22.770Z,1.799
2023-03-23T04:48:22.435Z,1.899
2023-03-23T04:50:22.622Z,1.700
2023-03-23T04:51:22.571Z,1.799
2023-03-23T04:52:22.756Z,2
2023-03-23T04:54:22.619Z,1.799
2023-03-23T04:55:22.799Z,1.700
2023-03-23T04:56:22.736Z,1.899
2023-03-23T04:57:22.767Z,2.099
2023-03-23T04:59:23.271Z,1.899
2023-03-23T05:01:23.486Z,2
2023-03-23T05:03:22.286Z,1.899
2023-03-23T05:04:22.945Z,2.099
2023-03-23T05:05:23.067Z,2
2023-03-23T05:09:22.840Z,1.899
2023-03-23T05:11:22.440Z,2.099
2023-03-23T05:12:22.489Z,1.799
2023-03-23T05:13:22.282Z,1.899
2023-03-23T05:14:22.208Z,2.099
2023-03-23T05:15:23.503Z,1.899
2023-03-23T05:18:22.304Z,1.799
2023-03-23T05:20:22.896Z,1.899
2023-03-23T05:21:22.207Z,1.700
2023-03-23T05:22:23.196Z,1.899
2023-03-23T05:23:22.056Z,1.799
2023-03-23T05:26:22.875Z,1.700
2023-03-23T05:27:22.483Z,1.600
2023-03-23T05:28:22.369Z,1.700
2023-03-23T05:29:23.189Z,1.600
2023-03-23T05:30:23.328Z,1.700
2023-03-23T05:31:22.410Z,1.799
2023-03-23T05:33:22.668Z,1.600
2023-03-23T05:35:22.862Z,1.799
2023-03-23T05:37:22.849Z,1.700
2023-03-23T05:38:22.960Z,1.5
2023-03-23T05:39:23.093Z,1.700
2023-03-23T05:41:22.822Z,1.899
2023-03-23T05:42:22.237Z,1.5
2023-03-23T05:43:22.634Z,1.700
2023-03-23T05:44:22.964Z,1.600
2023-03-23T05:45:23.070Z,1.700
2023-03-23T05:49:22.584Z,1.5
2023-03-23T05:52:22.192Z,1.600
2023-03-23T05:54:22.410Z,1.700
2023-03-23T05:55:22.703Z,1.5
2023-03-23T05:56:22.487Z,1.700
2023-03-23T05:57:22.152Z,1.399
2023-03-23T05:58:22.265Z,1.700
2023-03-23T05:59:22.179Z,1.600
2023-03-23T06:00:23.792Z,1.700
2023-03-23T06:01:22.639Z,1.799
2023-03-23T06:02:22.722Z,1.600
2023-03-23T06:04:22.609Z,1.700
2023-03-23T06:05:24.496Z,1.600
2023-03-23T06:06:23.053Z,1.5
2023-03-23T06:07:22.910Z,1.399
2023-03-23T06:08:23.036Z,1.5
2023-03-23T06:09:27.528Z,1.700
2023-03-23T06:10:23.491Z,1.5
2023-03-23T06:12:23.098Z,1.600
2023-03-23T06:13:22.689Z,1.700
2023-03-23T06:14:22.769Z,1.600
2023-03-23T06:15:23.491Z,1.399
2023-03-23T06:16:22.759Z,1.600
2023-03-23T06:17:29.804Z,1.700
2023-03-23T06:18:23.074Z,1.600
2023-03-23T06:21:22.322Z,1.5
2023-03-23T06:22:22.825Z,1.600
2023-03-23T06:23:22.913Z,1.700
2023-03-23T06:24:23.529Z,1.399
2023-03-23T06:25:31.020Z,1.600
2023-03-23T06:27:23.141Z,1.200
2023-03-23T06:28:22.435Z,1.399
2023-03-23T06:30:22.750Z,1.600
2023-03-23T06:31:23.483Z,1.5
2023-03-23T06:32:24.314Z,1.399
2023-03-23T06:34:23.111Z,1.299
2023-03-23T06:35:22.459Z,1.399
2023-03-23T06:36:23.131Z,1.5
2023-03-23T06:37:22.440Z,1.299
2023-03-23T06:38:23.290Z,1.5
2023-03-23T06:39:22.960Z,1.299
2023-03-23T06:40:23.315Z,1.5
2023-03-23T06:42:22.922Z,1.600
2023-03-23T06:43:22.722Z,1.299
2023-03-23T06:44:22.916Z,1.600
2023-03-23T06:45:23.020Z,1.5
2023-03-23T06:46:22.567Z,1.600
2023-03-23T06:47:22.849Z,1.399
2023-03-23T06:48:23.144Z,1.5
2023-03-23T06:49:23.268Z,1.399
2023-03-23T06:50:23.662Z,1.5
2023-03-23T06:51:22.728Z,1.600
2023-03-23T06:52:22.601Z,1.299
2023-03-23T06:53:22.524Z,1.5
2023-03-23T06:56:23.466Z,1.799
2023-03-23T06:57:24.122Z,1.600
2023-03-23T06:58:23.473Z,1.5
2023-03-23T07:00:24.598Z,1.200
2023-03-23T07:01:23.232Z,1.600
2023-03-23T07:02:23.280Z,1.399
2023-03-23T07:03:22.861Z,1.600
2023-03-23T07:04:23.544Z,1.5
2023-03-23T07:05:23.041Z,1.299
2023-03-23T07:07:23.518Z,1.600
2023-03-23T07:08:23.594Z,1.700
2023-03-23T07:10:25.782Z,1.299
2023-03-23T07:11:23.035Z,1.5
2023-03-23T07:12:23.636Z,1.600
2023-03-23T07:13:23.247Z,1.5
2023-03-23T07:15:23.104Z,1.299
2023-03-23T07:17:23.230Z,1.5
2023-03-23T07:18:23.038Z,1.399
2023-03-23T07:19:22.797Z,1.299
2023-03-23T07:20:23.608Z,1.399
2023-03-23T07:21:22.904Z,1.5
2023-03-23T07:22:24.787Z,1.399
2023-03-23T07:24:23.121Z,1.700
2023-03-23T07:25:23.427Z,1.5
2023-03-23T07:27:22.940Z,1.299
2023-03-23T07:28:23.140Z,1.5
2023-03-23T07:30:23.599Z,1.399
2023-03-23T07:33:23.163Z,1.299
2023-03-23T07:34:22.643Z,1.5
2023-03-23T07:36:23.307Z,1.700
2023-03-23T07:37:23.056Z,1.5
2023-03-23T07:38:22.886Z,1.600
2023-03-23T07:39:23.568Z,1.200
2023-03-23T07:40:22.708Z,1.399
2023-03-23T07:42:22.816Z,1.5
2023-03-23T07:43:23.175Z,1.399
2023-03-23T07:44:22.967Z,1.700
2023-03-23T07:45:22.727Z,1.600
2023-03-23T07:46:22.736Z,1.200
2023-03-23T07:47:23.014Z,1.5
2023-03-23T07:48:22.605Z,1.399
2023-03-23T07:50:22.552Z,1.5
2023-03-23T07:51:22.753Z,1.299
2023-03-23T07:52:23.142Z,1.399
2023-03-23T07:53:23.029Z,1.299
2023-03-23T07:55:22.946Z,1.399
2023-03-23T07:56:22.990Z,1.5
2023-03-23T07:57:23.089Z,1.399
2023-03-23T07:58:22.838Z,1.5
2023-03-23T07:59:23.175Z,1.399
2023-03-23T08:00:24.089Z,1.700
2023-03-23T08:01:23.316Z,1.299
2023-03-23T08:02:23.115Z,1.5
2023-03-23T08:04:23.233Z,1.799
2023-03-23T08:05:23.045Z,1.5
2023-03-23T08:06:23.108Z,1.700
2023-03-23T08:07:22.715Z,1.399
2023-03-23T08:09:24.045Z,1.600
2023-03-23T08:10:23.361Z,1.399
2023-03-23T08:11:23.148Z,1.299
2023-03-23T08:12:22.761Z,1.600
2023-03-23T08:13:23.229Z,1.399
2023-03-23T08:14:23.508Z,1.299
2023-03-23T08:15:23.802Z,1.399
2023-03-23T08:16:23.103Z,1.5
2023-03-23T08:17:22.957Z,1.399
2023-03-23T08:18:22.941Z,1.299
2023-03-23T08:19:22.911Z,1.600
2023-03-23T08:20:23.574Z,1.700
2023-03-23T08:21:23.187Z,1.600
2023-03-23T08:22:22.911Z,1.5
2023-03-23T08:23:22.604Z,1.399
2023-03-23T08:24:23.499Z,1.700
2023-03-23T08:25:23.140Z,1.299
2023-03-23T08:26:23.389Z,1.5
2023-03-23T08:28:23.197Z,1.600
2023-03-23T08:32:23.173Z,1.399
2023-03-23T08:33:23.133Z,1.5
2023-03-23T08:34:23.130Z,1.399
2023-03-23T08:35:23.205Z,1.5
2023-03-23T08:36:23.780Z,1.600
2023-03-23T08:37:23.679Z,1.299
2023-03-23T08:38:23.035Z,1.399
2023-03-23T08:39:23.526Z,1.5
2023-03-23T08:40:23.714Z,1.299
2023-03-23T08:41:23.911Z,1.5
2023-03-23T08:42:23.750Z,1.399
2023-03-23T08:43:23.187Z,1.299
2023-03-23T08:44:23.650Z,1.600
2023-03-23T08:45:24.073Z,1.799
2023-03-23T08:46:24.200Z,1.5
2023-03-23T08:47:24.246Z,1.600
2023-03-23T08:49:23.654Z,1.399
2023-03-23T08:50:32.101Z,1.600
2023-03-23T08:51:23.453Z,1.5
2023-03-23T08:52:23.585Z,1.600
2023-03-23T08:53:23.291Z,1.700
2023-03-23T08:54:31.613Z,1.5
2023-03-23T08:56:23.417Z,1.399
2023-03-23T08:58:23.082Z,1.600
2023-03-23T08:59:23.526Z,1.399
2023-03-23T09:01:23.448Z,1.5
2023-03-23T09:03:23.771Z,1.399
2023-03-23T09:04:23.140Z,1.200
2023-03-23T09:05:23.402Z,1.399
2023-03-23T09:06:23.634Z,1.600
2023-03-23T09:07:23.974Z,1.5
2023-03-23T09:08:22.886Z,1.600
2023-03-23T09:09:24.011Z,1.5
2023-03-23T09:10:23.382Z,1.299
2023-03-23T09:11:23.444Z,1.600
2023-03-23T09:12:22.999Z,1.5
2023-03-23T09:13:23.206Z,1.600
2023-03-23T09:14:23.740Z,1.700
2023-03-23T09:15:33.208Z,1.399
2023-03-23T09:16:23.599Z,1.200
2023-03-23T09:17:23.703Z,1.899
2023-03-23T09:18:23.552Z,1.399
2023-03-23T09:19:23.191Z,1.600
2023-03-23T09:20:23.166Z,1.5
2023-03-23T09:24:24.037Z,1.299
2023-03-23T09:25:23.497Z,1.700
2023-03-23T09:26:23.805Z,1.299
2023-03-23T09:27:24.903Z,1.399
2023-03-23T09:28:24.703Z,1.100
2023-03-23T09:29:24.784Z,1.5
2023-03-23T09:30:24.259Z,1.299
2023-03-23T09:31:24.667Z,1.399
2023-03-23T09:33:24.866Z,1.200
2023-03-23T09:34:24.607Z,1.299
2023-03-23T09:35:24.754Z,1.100
2023-03-23T09:37:24.775Z,1.200
2023-03-23T09:38:24.003Z,1.299
2023-03-23T09:39:24.702Z,1.399
2023-03-23T09:40:24.614Z,1
2023-03-23T09:43:22.718Z,1.200
2023-03-23T09:44:23.680Z,0.899
2023-03-23T09:45:23.508Z,1.100
2023-03-23T09:46:23.033Z,1
2023-03-23T09:48:23.435Z,1.100
2023-03-23T09:49:23.451Z,0.899
2023-03-23T09:51:23.285Z,0.800
2023-03-23T09:52:23.314Z,1
2023-03-23T09:53:23.392Z,1.100
2023-03-23T09:54:24.699Z,0.899
2023-03-23T09:57:25.146Z,1.100
2023-03-23T09:59:23.945Z,1
2023-03-23T10:01:29.322Z,1.100
2023-03-23T10:02:24.071Z,0.899
2023-03-23T10:04:23.878Z,1.299
2023-03-23T10:06:23.861Z,1.100
2023-03-23T10:08:24.090Z,0.899
2023-03-23T10:09:24.293Z,1.100
2023-03-23T10:10:24.408Z,0.899
2023-03-23T10:11:23.451Z,1
2023-03-23T10:12:23.336Z,0.800
2023-03-23T10:13:23.839Z,0.899
2023-03-23T10:14:23.576Z,0.800
2023-03-23T10:15:24.558Z,1.200
2023-03-23T10:16:23.886Z,1.100
2023-03-23T10:17:23.806Z,0.800
2023-03-23T10:18:23.480Z,0.699
2023-03-23T10:19:23.556Z,1.100
2023-03-23T10:20:23.854Z,0.899
2023-03-23T10:21:23.556Z,1
2023-03-23T10:22:23.327Z,0.800
2023-03-23T10:23:23.312Z,1
2023-03-23T10:24:23.439Z,0.899
2023-03-23T10:25:23.282Z,0.800
2023-03-23T10:26:23.477Z,0.899
2023-03-23T10:27:23.254Z,0.800
2023-03-23T10:28:23.802Z,0.899
2023-03-23T10:30:23.952Z,1.299
2023-03-23T10:31:23.197Z,0.800
2023-03-23T10:32:23.989Z,1
2023-03-23T10:34:23.221Z,0.899
2023-03-23T10:36:23.261Z,0.800
2023-03-23T10:37:23.555Z,0.899
2023-03-23T10:40:23.442Z,1
2023-03-23T10:41:23.532Z,0.899
2023-03-23T10:42:23.142Z,0.800
2023-03-23T10:43:22.625Z,1.100
2023-03-23T10:44:23.072Z,1
2023-03-23T10:46:31.947Z,0.699
2023-03-23T10:47:23.547Z,1
2023-03-23T10:49:24.157Z,0.800
2023-03-23T10:52:25.134Z,0.899
2023-03-23T10:53:24.760Z,0.800
2023-03-23T10:54:24.305Z,0.699
2023-03-23T10:56:24.285Z,0.600
2023-03-23T10:58:25.579Z,0.699
2023-03-23T10:59:25.366Z,0.600
2023-03-23T11:00:26.167Z,0.699
2023-03-23T11:01:26.444Z,0.600
2023-03-23T11:02:29.633Z,0.699
2023-03-23T11:03:24.658Z,0.600
2023-03-23T11:04:24.899Z,0.800
2023-03-23T11:05:25.214Z,0.600
2023-03-23T11:06:24.948Z,0.699
2023-03-23T11:09:24.283Z,0.899
2023-03-23T11:10:24.084Z,0.699
2023-03-23T11:11:23.968Z,0.899
2023-03-23T11:12:24.595Z,0.699
2023-03-23T11:13:24.212Z,0.800
2023-03-23T11:15:24.616Z,0.600
2023-03-23T11:20:24.514Z,0.699
2023-03-23T11:21:24.568Z,0.5
2023-03-23T11:22:25.173Z,0.800
2023-03-23T11:23:33.211Z,0.699
2023-03-23T11:24:25.222Z,0.600
2023-03-23T11:25:25.334Z,0.800
2023-03-23T11:27:24.343Z,0.699
2023-03-23T11:28:25.150Z,0.800
2023-03-23T11:29:24.772Z,1
2023-03-23T11:30:25.519Z,0.600
2023-03-23T11:31:24.335Z,0.800
2023-03-23T11:32:24.859Z,0.699
2023-03-23T11:33:25.797Z,0.800
2023-03-23T11:34:24.974Z,0.899
2023-03-23T11:35:24.737Z,1.100
2023-03-23T11:36:25.320Z,0.800
2023-03-23T11:37:24.761Z,1.200
2023-03-23T11:38:25.052Z,0.899
2023-03-23T11:39:24.674Z,1
2023-03-23T11:41:24.901Z,1.100
2023-03-23T11:42:25.017Z,1.299
2023-03-23T11:43:25.321Z,1.200
2023-03-23T11:44:24.696Z,0.899
2023-03-23T11:45:44.212Z,1.200
2023-03-23T11:46:27.820Z,1.100
2023-03-23T11:47:24.514Z,1.299
2023-03-23T11:48:24.697Z,1.399
2023-03-23T11:49:26.198Z,1.299
2023-03-23T11:50:25.043Z,1.200
2023-03-23T11:51:25.407Z,1.399
2023-03-23T11:52:25.438Z,1.200
2023-03-23T11:53:25.505Z,1.399
2023-03-23T11:54:24.728Z,1.100
2023-03-23T11:56:25.364Z,1.299
2023-03-23T11:58:25.192Z,1.399
2023-03-23T11:59:24.577Z,1.100
2023-03-23T12:00:26.012Z,1.399
2023-03-23T12:01:24.930Z,1.200
2023-03-23T12:02:23.879Z,1.600
2023-03-23T12:03:23.866Z,1.100
2023-03-23T12:05:24.915Z,1.700
2023-03-23T12:06:24.212Z,1.399
2023-03-23T12:07:23.409Z,1.100
2023-03-23T12:08:23.503Z,1.200
2023-03-23T12:10:35.335Z,1.5
2023-03-23T12:11:23.800Z,1.399
2023-03-23T12:12:23.126Z,1.299
2023-03-23T12:13:23.092Z,1.399
2023-03-23T12:14:25.194Z,1.600
2023-03-23T12:15:23.681Z,1.299
2023-03-23T12:17:23.205Z,1.5
2023-03-23T12:18:22.907Z,1.200
2023-03-23T12:19:23.148Z,1.399
2023-03-23T12:20:23.860Z,1.5
2023-03-23T12:21:23.922Z,1.600
2023-03-23T12:22:23.250Z,1.5
2023-03-23T12:23:23.974Z,1.399
2023-03-23T12:24:25.042Z,1.600
2023-03-23T12:25:24.310Z,1.399
2023-03-23T12:26:24.963Z,1.600
2023-03-23T12:27:24.927Z,1.299
2023-03-23T12:28:24.481Z,1.200
2023-03-23T12:29:24.930Z,1.299
2023-03-23T12:30:24.907Z,1.100
2023-03-23T12:31:24.600Z,1.299
2023-03-23T12:32:24.778Z,1.100
2023-03-23T12:33:24.569Z,1.399
2023-03-23T12:34:24.575Z,1.299
2023-03-23T12:36:24.451Z,1.399
2023-03-23T12:37:24.566Z,1.200
2023-03-23T12:38:24.139Z,1.299
2023-03-23T12:40:24.656Z,1.399
2023-03-23T12:41:24.863Z,1.299
2023-03-23T12:42:24.435Z,1.399
2023-03-23T12:43:24.326Z,1.200
2023-03-23T12:45:24.724Z,1.399
2023-03-23T12:46:24.324Z,1.299
2023-03-23T12:47:24.232Z,1.399
2023-03-23T12:49:24.369Z,1.299
2023-03-23T12:51:24.760Z,1.5
2023-03-23T12:52:24.914Z,1.399
2023-03-23T12:53:23.954Z,1.600
2023-03-23T12:54:24.712Z,1.399
2023-03-23T12:55:24.260Z,1.5
2023-03-23T12:58:24.382Z,1.399
2023-03-23T12:59:25.274Z,1.799
2023-03-23T13:00:26.224Z,1.5
2023-03-23T13:01:25.236Z,1.700
2023-03-23T13:02:25.396Z,1.5
2023-03-23T13:05:25.069Z,1.399
2023-03-23T13:06:25.295Z,1.600
2023-03-23T13:07:24.995Z,1.399
2023-03-23T13:09:25.082Z,1.299
2023-03-23T13:11:24.487Z,1.399
2023-03-23T13:12:25.188Z,1.299
2023-03-23T13:13:25.104Z,1.5
2023-03-23T13:14:24.595Z,1.299
2023-03-23T13:15:25.298Z,1.399
2023-03-23T13:17:25.082Z,1.5
2023-03-23T13:21:24.575Z,1.399
2023-03-23T13:22:24.982Z,1.600
2023-03-23T13:25:25.471Z,1.299
2023-03-23T13:27:24.412Z,1.399
2023-03-23T13:28:24.304Z,1.299
2023-03-23T13:30:24.698Z,1.399
2023-03-23T13:31:24.293Z,1.600
2023-03-23T13:33:23.637Z,1.399
2023-03-23T13:34:23.489Z,1.5
2023-03-23T13:35:23.719Z,1.600
2023-03-23T13:37:23.972Z,1.5
2023-03-23T13:38:23.111Z,1.700
2023-03-23T13:39:23.356Z,1.600
2023-03-23T13:41:24.032Z,1.200
2023-03-23T13:42:31.188Z,1.399
2023-03-23T13:43:23.325Z,1.5
2023-03-23T13:44:31.462Z,1.600
2023-03-23T13:45:23.994Z,1.5
2023-03-23T13:46:23.939Z,1.600
2023-03-23T13:48:23.215Z,1.799
2023-03-23T13:49:24.199Z,1.5
2023-03-23T13:50:23.312Z,1.299
2023-03-23T13:52:37.802Z,1.600
2023-03-23T13:54:38.886Z,1.399
2023-03-23T13:55:25.170Z,1.600
2023-03-23T13:56:39.397Z,1.799
2023-03-23T13:57:25.229Z,1.5
2023-03-23T13:59:25.085Z,1.700
2023-03-23T14:00:40.012Z,1.5
2023-03-23T14:02:24.984Z,1.899
2023-03-23T14:03:25.254Z,1.399
2023-03-23T14:05:24.861Z,1.600
2023-03-23T14:08:24.088Z,1.5
2023-03-23T14:11:25.027Z,1.700
2023-03-23T14:12:23.990Z,1.399
2023-03-23T14:13:24.535Z,1.799
2023-03-23T14:14:24.624Z,1.600
2023-03-23T14:16:23.890Z,1.399
2023-03-23T14:17:24.482Z,1.600
2023-03-23T14:18:24.045Z,1.5
2023-03-23T14:19:25.008Z,1.600
2023-03-23T14:21:24.414Z,1.5
2023-03-23T14:22:24.362Z,1.600
2023-03-23T14:23:24.557Z,1.700
2023-03-23T14:24:24.920Z,1.799
2023-03-23T14:25:24.707Z,1.600
2023-03-23T14:26:25.028Z,1.700
2023-03-23T14:27:25.572Z,1.600
2023-03-23T14:29:25.565Z,1.700
2023-03-23T14:30:25.166Z,1.5
2023-03-23T14:33:24.902Z,1.399
2023-03-23T14:34:25.155Z,1.700
2023-03-23T14:36:24.693Z,1.299
2023-03-23T14:37:24.216Z,1.600
2023-03-23T14:38:25.004Z,1.5
2023-03-23T14:43:24.903Z,1.299
2023-03-23T14:44:24.639Z,1.5
2023-03-23T14:45:25.101Z,1.399
2023-03-23T14:46:24.505Z,1.799
2023-03-23T14:47:24.425Z,1.5
2023-03-23T14:48:25.198Z,1.899
2023-03-23T14:49:25.272Z,1.600
2023-03-23T14:50:24.731Z,1.399
2023-03-23T14:51:24.854Z,1.5
2023-03-23T14:52:24.574Z,1.600
2023-03-23T14:54:24.141Z,1.399
2023-03-23T14:55:24.851Z,1.5
2023-03-23T14:56:24.436Z,1.399
2023-03-23T14:57:24.180Z,1.600
2023-03-23T14:58:24.524Z,1.5
2023-03-23T14:59:24.887Z,1.600
2023-03-23T15:00:25.324Z,1.799
2023-03-23T15:01:24.738Z,1.5
2023-03-23T15:02:24.522Z,1.899
2023-03-23T15:03:24.868Z,1.399
2023-03-23T15:04:25.014Z,1.799
2023-03-23T15:05:25.147Z,1.600
2023-03-23T15:06:25.438Z,1.700
2023-03-23T15:08:24.977Z,2
2023-03-23T15:09:25.029Z,1.600
2023-03-23T15:10:24.814Z,1.899
2023-03-23T15:11:24.056Z,1.700
2023-03-23T15:12:23.092Z,1.799
2023-03-23T15:13:23.162Z,1.700
2023-03-23T15:14:22.698Z,1.600
2023-03-23T15:15:23.689Z,1.799
2023-03-23T15:17:23.401Z,1.700
2023-03-23T15:18:22.677Z,1.600
2023-03-23T15:19:22.973Z,1.5
2023-03-23T15:20:22.907Z,1.700
2023-03-23T15:21:23.334Z,1.600
2023-03-23T15:23:22.901Z,1.799
2023-03-23T15:24:23.566Z,1.700
2023-03-23T15:28:23.128Z,1.899
2023-03-23T15:29:26.720Z,1.799
2023-03-23T15:31:23.384Z,1.899
2023-03-23T15:32:23.155Z,1.799
2023-03-23T15:33:22.949Z,1.700
2023-03-23T15:34:23.699Z,1.899
2023-03-23T15:35:23.421Z,1.799
2023-03-23T15:36:23.583Z,1.600
2023-03-23T15:37:23.508Z,1.899
2023-03-23T15:38:22.787Z,1.700
2023-03-23T15:41:23.161Z,1.799
2023-03-23T15:43:22.892Z,1.899
2023-03-23T15:44:23.919Z,1.700
2023-03-23T15:45:24.481Z,1.600
2023-03-23T15:46:24.390Z,2
2023-03-23T15:47:23.622Z,1.700
2023-03-23T15:48:24.169Z,2
2023-03-23T15:49:24.114Z,1.600
2023-03-23T15:50:25.276Z,1.799
2023-03-23T15:51:24.691Z,1.899
2023-03-23T15:52:24.616Z,1.600
2023-03-23T15:53:24.339Z,1.799
2023-03-23T15:54:24.266Z,2
2023-03-23T15:55:28.992Z,1.899
2023-03-23T15:56:24.948Z,1.799
2023-03-23T15:58:24.319Z,1.899
2023-03-23T15:59:29.305Z,1.700
2023-03-23T16:02:24.767Z,1.899
2023-03-23T16:03:24.536Z,1.600
2023-03-23T16:05:29.433Z,1.899
2023-03-23T16:06:25.194Z,1.799
2023-03-23T16:09:25.170Z,1.700
2023-03-23T16:11:24.115Z,2.099
2023-03-23T16:12:24.339Z,1.899
2023-03-23T16:16:24.497Z,2.200
2023-03-23T16:17:24.291Z,1.899
2023-03-23T16:18:24.318Z,2.400
2023-03-23T16:19:38.729Z,2.099
2023-03-23T16:21:24.534Z,2
2023-03-23T16:22:24.385Z,2.200
2023-03-23T16:23:24.387Z,1.799
2023-03-23T16:24:24.162Z,1.700
2023-03-23T16:25:24.302Z,1.899
2023-03-23T16:27:24.831Z,1.799
2023-03-23T16:28:25.279Z,2
2023-03-23T16:29:40.604Z,1.799
2023-03-23T16:30:30.909Z,2.299
2023-03-23T16:31:25.543Z,1.899
2023-03-23T16:32:25.123Z,2
2023-03-23T16:33:24.838Z,1.899
2023-03-23T16:34:24.711Z,2.200
2023-03-23T16:35:43.995Z,2
2023-03-23T16:36:24.067Z,1.899
2023-03-23T16:37:23.835Z,2.099
2023-03-23T16:38:24.621Z,1.799
2023-03-23T16:40:24.839Z,1.899
2023-03-23T16:41:24.414Z,2.099
2023-03-23T16:42:24.449Z,1.700
2023-03-23T16:43:46.813Z,2
2023-03-23T16:44:25.664Z,1.799
2023-03-23T16:45:24.955Z,1.5
2023-03-23T16:46:24.782Z,1.899
2023-03-23T16:47:46.784Z,1.700
2023-03-23T16:48:25.080Z,2.099
2023-03-23T16:49:25.373Z,1.899
2023-03-23T16:51:24.356Z,2
2023-03-23T16:52:24.948Z,1.899
2023-03-23T16:53:24.344Z,1.799
2023-03-23T16:54:24.915Z,2
2023-03-23T16:55:24.622Z,1.799
2023-03-23T16:58:24.320Z,1.899
2023-03-23T17:02:23.690Z,1.799
2023-03-23T17:03:24.231Z,1.899
2023-03-23T17:04:23.978Z,2.099
2023-03-23T17:05:24.568Z,1.899
2023-03-23T17:06:23.081Z,2.099
2023-03-23T17:07:23.457Z,1.899
2023-03-23T17:08:24.038Z,1.799
2023-03-23T17:09:23.939Z,2.099